Pagrindinis puslapis
METAR-TAF:

METAR-TAF

Oro uostai :

Korientesas, Argentina

platuma: 27-27S, ilguma: 058-46W, Aukštis: 62 m

Dabartinis oras

Ataskaita buvo paskelbta 40 minutes, ne 12:00 UTC
Vėjas 6 kt iš Vakarų
Temperatūra 14°C
Drėgmė 94%
Slėgis 1019 hPa
Matomumas: 4000 m
Apsiniaukę ne aukštis 300 ft
rūkana

METAR: SARC 161200Z 27006KT 4000 BR OVC003 14/13 Q1019

Laikas: 09:40 (12:40 UTC)


TAF: trūkstamas

Orai ataskaitas ir orų prognozės (METAR, TAF).

turimą stotys yra geltonos ir raudonos taškus žemėlapyje.

Perkelti pele per norėdami pamatyti stoties vardą.

Tada spustelėkite, norėdami matyti oro stebėjimo ir prognozės.

Norėdami pakeisti žemėlapį: spustelėkite ant žalios mygtukų su juodo kryžiaus žemyn,; žalią mygtuką su brūkšneliu, jei norite nutolinti; arba žalių rodyklių gretimoms žemėlapius.


METAR-TAF: